sensor_id;sensor_type;location;lat;lon;timestamp;temperature;humidity
13310;DHT22;6723;48.256;16.402;2023-02-05T00:01:21;0.70;99.90
13310;DHT22;6723;48.256;16.402;2023-02-05T00:03:48;0.70;99.90
13310;DHT22;6723;48.256;16.402;2023-02-05T00:06:14;0.70;99.90
13310;DHT22;6723;48.256;16.402;2023-02-05T00:08:40;0.70;99.90
13310;DHT22;6723;48.256;16.402;2023-02-05T00:11:05;0.70;99.90
13310;DHT22;6723;48.256;16.402;2023-02-05T00:13:39;0.60;99.90
13310;DHT22;6723;48.256;16.402;2023-02-05T00:16:17;0.60;99.90
13310;DHT22;6723;48.256;16.402;2023-02-05T00:18:43;0.60;99.90
13310;DHT22;6723;48.256;16.402;2023-02-05T00:21:11;0.70;99.90
13310;DHT22;6723;48.256;16.402;2023-02-05T00:23:37;0.70;99.90
13310;DHT22;6723;48.256;16.402;2023-02-05T00:26:04;0.60;99.90
13310;DHT22;6723;48.256;16.402;2023-02-05T00:28:31;0.60;99.90
13310;DHT22;6723;48.256;16.402;2023-02-05T00:30:58;0.60;99.90
13310;DHT22;6723;48.256;16.402;2023-02-05T00:33:24;0.60;99.90
13310;DHT22;6723;48.256;16.402;2023-02-05T00:35:50;0.60;99.90
13310;DHT22;6723;48.256;16.402;2023-02-05T00:38:16;0.60;99.90
13310;DHT22;6723;48.256;16.402;2023-02-05T00:40:42;0.60;99.90
13310;DHT22;6723;48.256;16.402;2023-02-05T00:43:09;0.60;99.90
13310;DHT22;6723;48.256;16.402;2023-02-05T00:45:35;0.60;99.90
13310;DHT22;6723;48.256;16.402;2023-02-05T00:48:02;0.60;99.90
13310;DHT22;6723;48.256;16.402;2023-02-05T00:50:28;0.50;99.90
13310;DHT22;6723;48.256;16.402;2023-02-05T00:52:54;0.50;99.90
13310;DHT22;6723;48.256;16.402;2023-02-05T00:55:21;0.60;99.90
13310;DHT22;6723;48.256;16.402;2023-02-05T00:57:47;0.60;99.90
13310;DHT22;6723;48.256;16.402;2023-02-05T01:00:13;0.50;99.90
13310;DHT22;6723;48.256;16.402;2023-02-05T01:02:39;0.50;99.90
13310;DHT22;6723;48.256;16.402;2023-02-05T01:05:05;0.50;99.90
13310;DHT22;6723;48.256;16.402;2023-02-05T01:07:31;0.50;99.90
13310;DHT22;6723;48.256;16.402;2023-02-05T01:09:57;0.40;99.90
13310;DHT22;6723;48.256;16.402;2023-02-05T01:12:23;0.40;99.90
13310;DHT22;6723;48.256;16.402;2023-02-05T01:14:49;0.30;99.90
13310;DHT22;6723;48.256;16.402;2023-02-05T01:17:16;0.30;99.90
13310;DHT22;6723;48.256;16.402;2023-02-05T01:19:42;0.40;99.90
13310;DHT22;6723;48.256;16.402;2023-02-05T01:22:08;0.30;99.90
13310;DHT22;6723;48.256;16.402;2023-02-05T01:24:36;0.30;99.90
13310;DHT22;6723;48.256;16.402;2023-02-05T01:27:03;0.20;99.90
13310;DHT22;6723;48.256;16.402;2023-02-05T01:29:29;0.20;99.90
13310;DHT22;6723;48.256;16.402;2023-02-05T01:31:55;0.10;99.90
13310;DHT22;6723;48.256;16.402;2023-02-05T01:34:21;0.10;99.90
13310;DHT22;6723;48.256;16.402;2023-02-05T01:36:48;0.10;99.90
13310;DHT22;6723;48.256;16.402;2023-02-05T01:39:14;0.10;99.90
13310;DHT22;6723;48.256;16.402;2023-02-05T01:41:41;0.10;99.90
13310;DHT22;6723;48.256;16.402;2023-02-05T01:44:13;0.00;99.90
13310;DHT22;6723;48.256;16.402;2023-02-05T01:46:46;0.10;99.90
13310;DHT22;6723;48.256;16.402;2023-02-05T01:49:17;0.10;99.90
13310;DHT22;6723;48.256;16.402;2023-02-05T01:51:44;0.00;99.90
13310;DHT22;6723;48.256;16.402;2023-02-05T01:54:13;0.00;99.90
13310;DHT22;6723;48.256;16.402;2023-02-05T01:56:43;0.00;99.90
13310;DHT22;6723;48.256;16.402;2023-02-05T01:59:21;0.00;99.90
13310;DHT22;6723;48.256;16.402;2023-02-05T02:01:49;0.00;99.90
13310;DHT22;6723;48.256;16.402;2023-02-05T02:04:31;-0.10;99.90
13310;DHT22;6723;48.256;16.402;2023-02-05T02:07:02;-0.10;99.90
13310;DHT22;6723;48.256;16.402;2023-02-05T02:09:28;-0.10;99.90
13310;DHT22;6723;48.256;16.402;2023-02-05T02:11:55;-0.20;99.90
13310;DHT22;6723;48.256;16.402;2023-02-05T02:14:23;-0.20;99.90
13310;DHT22;6723;48.256;16.402;2023-02-05T02:16:56;-0.20;99.90
13310;DHT22;6723;48.256;16.402;2023-02-05T02:22:51;-0.30;99.90
13310;DHT22;6723;48.256;16.402;2023-02-05T02:27:38;-0.40;99.90
13310;DHT22;6723;48.256;16.402;2023-02-05T02:36:16;-0.50;99.90
13310;DHT22;6723;48.256;16.402;2023-02-05T02:39:09;-0.50;99.90
13310;DHT22;6723;48.256;16.402;2023-02-05T02:44:18;-0.60;99.90
13310;DHT22;6723;48.256;16.402;2023-02-05T02:46:53;-0.60;99.90
13310;DHT22;6723;48.256;16.402;2023-02-05T02:52:22;-0.70;99.90
13310;DHT22;6723;48.256;16.402;2023-02-05T02:54:52;-0.70;99.90
13310;DHT22;6723;48.256;16.402;2023-02-05T02:57:23;-0.80;99.90
13310;DHT22;6723;48.256;16.402;2023-02-05T02:59:52;-0.80;99.90
13310;DHT22;6723;48.256;16.402;2023-02-05T03:02:19;-0.80;99.90
13310;DHT22;6723;48.256;16.402;2023-02-05T03:04:54;-0.80;99.90
13310;DHT22;6723;48.256;16.402;2023-02-05T03:07:41;-0.90;99.90
13310;DHT22;6723;48.256;16.402;2023-02-05T03:12:41;-0.80;99.90
13310;DHT22;6723;48.256;16.402;2023-02-05T03:15:08;-0.90;99.90
13310;DHT22;6723;48.256;16.402;2023-02-05T03:17:35;-0.90;99.90
13310;DHT22;6723;48.256;16.402;2023-02-05T03:20:10;-1.00;99.90
13310;DHT22;6723;48.256;16.402;2023-02-05T03:22:38;-1.00;99.90
13310;DHT22;6723;48.256;16.402;2023-02-05T03:25:04;-1.00;99.90
13310;DHT22;6723;48.256;16.402;2023-02-05T03:27:31;-1.00;99.90
13310;DHT22;6723;48.256;16.402;2023-02-05T03:29:57;-1.00;99.90
13310;DHT22;6723;48.256;16.402;2023-02-05T03:35:16;-1.10;99.90
13310;DHT22;6723;48.256;16.402;2023-02-05T03:38:03;-1.10;99.90
13310;DHT22;6723;48.256;16.402;2023-02-05T03:40:55;-1.10;99.90
13310;DHT22;6723;48.256;16.402;2023-02-05T03:49:03;-1.20;99.90
13310;DHT22;6723;48.256;16.402;2023-02-05T03:51:37;-1.20;99.90
13310;DHT22;6723;48.256;16.402;2023-02-05T03:54:21;-1.30;99.90
13310;DHT22;6723;48.256;16.402;2023-02-05T03:59:36;-1.30;99.90
13310;DHT22;6723;48.256;16.402;2023-02-05T04:02:03;-1.30;99.90
13310;DHT22;6723;48.256;16.402;2023-02-05T04:04:30;-1.20;99.90
13310;DHT22;6723;48.256;16.402;2023-02-05T04:06:56;-1.20;99.90
13310;DHT22;6723;48.256;16.402;2023-02-05T04:09:22;-1.20;99.90
13310;DHT22;6723;48.256;16.402;2023-02-05T04:11:48;-1.20;99.90
13310;DHT22;6723;48.256;16.402;2023-02-05T04:14:14;-1.30;99.90
13310;DHT22;6723;48.256;16.402;2023-02-05T04:16:40;-1.30;99.90
13310;DHT22;6723;48.256;16.402;2023-02-05T04:19:06;-1.40;99.90
13310;DHT22;6723;48.256;16.402;2023-02-05T04:21:32;-1.30;99.90
13310;DHT22;6723;48.256;16.402;2023-02-05T04:23:58;-1.30;99.90
13310;DHT22;6723;48.256;16.402;2023-02-05T04:26:23;-1.30;99.90
13310;DHT22;6723;48.256;16.402;2023-02-05T04:28:49;-1.30;99.90
13310;DHT22;6723;48.256;16.402;2023-02-05T04:31:15;-1.30;99.90
13310;DHT22;6723;48.256;16.402;2023-02-05T04:33:41;-1.30;99.90
13310;DHT22;6723;48.256;16.402;2023-02-05T04:36:07;-1.40;99.90
13310;DHT22;6723;48.256;16.402;2023-02-05T04:38:34;-1.40;99.90
13310;DHT22;6723;48.256;16.402;2023-02-05T04:40:59;-1.40;99.90
13310;DHT22;6723;48.256;16.402;2023-02-05T04:43:25;-1.40;99.90
13310;DHT22;6723;48.256;16.402;2023-02-05T04:45:51;-1.40;99.90
13310;DHT22;6723;48.256;16.402;2023-02-05T04:48:17;-1.40;99.90
13310;DHT22;6723;48.256;16.402;2023-02-05T04:50:46;-1.40;99.90
13310;DHT22;6723;48.256;16.402;2023-02-05T04:53:12;-1.40;99.90
13310;DHT22;6723;48.256;16.402;2023-02-05T04:55:37;-1.40;99.90
13310;DHT22;6723;48.256;16.402;2023-02-05T04:58:03;-1.50;99.90
13310;DHT22;6723;48.256;16.402;2023-02-05T05:00:29;-1.50;99.90
13310;DHT22;6723;48.256;16.402;2023-02-05T05:02:56;-1.50;99.90
13310;DHT22;6723;48.256;16.402;2023-02-05T05:05:22;-1.50;99.90
13310;DHT22;6723;48.256;16.402;2023-02-05T05:07:47;-1.60;99.90
13310;DHT22;6723;48.256;16.402;2023-02-05T05:10:13;-1.60;99.90
13310;DHT22;6723;48.256;16.402;2023-02-05T05:12:39;-1.50;99.90
13310;DHT22;6723;48.256;16.402;2023-02-05T05:15:06;-1.50;99.90
13310;DHT22;6723;48.256;16.402;2023-02-05T05:17:33;-1.50;99.90
13310;DHT22;6723;48.256;16.402;2023-02-05T05:19:59;-1.50;99.90
13310;DHT22;6723;48.256;16.402;2023-02-05T05:22:25;-1.50;99.90
13310;DHT22;6723;48.256;16.402;2023-02-05T05:24:51;-1.50;99.90
13310;DHT22;6723;48.256;16.402;2023-02-05T05:27:17;-1.50;99.90
13310;DHT22;6723;48.256;16.402;2023-02-05T05:29:44;-1.40;99.90
13310;DHT22;6723;48.256;16.402;2023-02-05T05:32:12;-1.30;99.90
13310;DHT22;6723;48.256;16.402;2023-02-05T05:34:38;-1.30;99.90
13310;DHT22;6723;48.256;16.402;2023-02-05T05:37:03;-1.30;99.90
13310;DHT22;6723;48.256;16.402;2023-02-05T05:39:29;-1.30;99.90
13310;DHT22;6723;48.256;16.402;2023-02-05T05:42:14;-1.30;99.90
13310;DHT22;6723;48.256;16.402;2023-02-05T05:44:58;-1.30;99.90
13310;DHT22;6723;48.256;16.402;2023-02-05T05:47:24;-1.30;99.90
13310;DHT22;6723;48.256;16.402;2023-02-05T05:49:50;-1.30;99.90
13310;DHT22;6723;48.256;16.402;2023-02-05T05:52:16;-1.30;99.90
13310;DHT22;6723;48.256;16.402;2023-02-05T05:54:41;-1.20;99.80
13310;DHT22;6723;48.256;16.402;2023-02-05T05:57:07;-1.20;99.80
13310;DHT22;6723;48.256;16.402;2023-02-05T05:59:34;-1.20;99.60
13310;DHT22;6723;48.256;16.402;2023-02-05T06:02:00;-1.30;99.80
13310;DHT22;6723;48.256;16.402;2023-02-05T06:04:27;-1.30;99.70
13310;DHT22;6723;48.256;16.402;2023-02-05T06:06:53;-1.30;99.80
13310;DHT22;6723;48.256;16.402;2023-02-05T06:09:19;-1.30;99.80
13310;DHT22;6723;48.256;16.402;2023-02-05T06:11:47;-1.30;99.80
13310;DHT22;6723;48.256;16.402;2023-02-05T06:14:13;-1.30;99.60
13310;DHT22;6723;48.256;16.402;2023-02-05T06:16:40;-1.30;99.50
13310;DHT22;6723;48.256;16.402;2023-02-05T06:19:05;-1.30;99.50
13310;DHT22;6723;48.256;16.402;2023-02-05T06:21:31;-1.30;99.50
13310;DHT22;6723;48.256;16.402;2023-02-05T06:23:57;-1.30;99.50
13310;DHT22;6723;48.256;16.402;2023-02-05T06:26:23;-1.30;99.50
13310;DHT22;6723;48.256;16.402;2023-02-05T06:28:49;-1.30;99.60
13310;DHT22;6723;48.256;16.402;2023-02-05T06:31:15;-1.40;99.70
13310;DHT22;6723;48.256;16.402;2023-02-05T06:33:42;-1.40;99.50
13310;DHT22;6723;48.256;16.402;2023-02-05T06:36:09;-1.40;99.70
13310;DHT22;6723;48.256;16.402;2023-02-05T06:38:35;-1.40;99.70
13310;DHT22;6723;48.256;16.402;2023-02-05T06:41:01;-1.50;99.70
13310;DHT22;6723;48.256;16.402;2023-02-05T06:43:27;-1.40;99.70
13310;DHT22;6723;48.256;16.402;2023-02-05T06:45:53;-1.40;99.80
13310;DHT22;6723;48.256;16.402;2023-02-05T06:48:20;-1.40;99.70
13310;DHT22;6723;48.256;16.402;2023-02-05T06:50:46;-1.40;99.70
13310;DHT22;6723;48.256;16.402;2023-02-05T06:53:12;-1.40;99.70
13310;DHT22;6723;48.256;16.402;2023-02-05T06:55:38;-1.40;99.70
13310;DHT22;6723;48.256;16.402;2023-02-05T06:58:04;-1.40;99.70
13310;DHT22;6723;48.256;16.402;2023-02-05T07:00:33;-1.30;99.90
13310;DHT22;6723;48.256;16.402;2023-02-05T07:02:59;-1.30;99.90
13310;DHT22;6723;48.256;16.402;2023-02-05T07:05:24;-1.30;99.80
13310;DHT22;6723;48.256;16.402;2023-02-05T07:07:50;-1.20;99.80
13310;DHT22;6723;48.256;16.402;2023-02-05T07:10:16;-1.10;99.90
13310;DHT22;6723;48.256;16.402;2023-02-05T07:12:43;-1.10;99.70
13310;DHT22;6723;48.256;16.402;2023-02-05T07:15:09;-1.00;99.70
13310;DHT22;6723;48.256;16.402;2023-02-05T07:17:35;-1.00;99.60
13310;DHT22;6723;48.256;16.402;2023-02-05T07:20:01;-1.00;99.60
13310;DHT22;6723;48.256;16.402;2023-02-05T07:22:27;-0.90;99.90
13310;DHT22;6723;48.256;16.402;2023-02-05T07:24:53;-0.80;99.70
13310;DHT22;6723;48.256;16.402;2023-02-05T07:27:19;-0.80;99.50
13310;DHT22;6723;48.256;16.402;2023-02-05T07:29:44;-0.70;99.50
13310;DHT22;6723;48.256;16.402;2023-02-05T07:32:10;-0.70;99.60
13310;DHT22;6723;48.256;16.402;2023-02-05T07:34:36;-0.60;99.60
13310;DHT22;6723;48.256;16.402;2023-02-05T07:37:02;-0.40;99.60
13310;DHT22;6723;48.256;16.402;2023-02-05T07:39:28;-0.40;99.10
13310;DHT22;6723;48.256;16.402;2023-02-05T07:41:54;-0.40;99.10
13310;DHT22;6723;48.256;16.402;2023-02-05T07:44:20;-0.30;99.00
13310;DHT22;6723;48.256;16.402;2023-02-05T07:46:46;-0.10;99.00
13310;DHT22;6723;48.256;16.402;2023-02-05T07:49:12;0.10;98.60
13310;DHT22;6723;48.256;16.402;2023-02-05T07:51:38;0.10;98.60
13310;DHT22;6723;48.256;16.402;2023-02-05T07:54:08;0.20;98.50
13310;DHT22;6723;48.256;16.402;2023-02-05T07:56:34;0.40;98.20
13310;DHT22;6723;48.256;16.402;2023-02-05T07:59:00;0.70;98.20
13310;DHT22;6723;48.256;16.402;2023-02-05T08:01:26;1.10;97.80
13310;DHT22;6723;48.256;16.402;2023-02-05T08:03:53;1.80;97.80
13310;DHT22;6723;48.256;16.402;2023-02-05T08:06:19;2.50;96.40
13310;DHT22;6723;48.256;16.402;2023-02-05T08:08:45;3.00;95.50
13310;DHT22;6723;48.256;16.402;2023-02-05T08:11:13;4.00;94.80
13310;DHT22;6723;48.256;16.402;2023-02-05T08:13:40;4.70;93.20
13310;DHT22;6723;48.256;16.402;2023-02-05T08:16:07;5.30;91.90
13310;DHT22;6723;48.256;16.402;2023-02-05T08:18:36;6.30;92.00
13310;DHT22;6723;48.256;16.402;2023-02-05T08:21:02;6.30;90.00
13310;DHT22;6723;48.256;16.402;2023-02-05T08:23:29;7.00;90.20
13310;DHT22;6723;48.256;16.402;2023-02-05T08:25:56;8.40;87.90
13310;DHT22;6723;48.256;16.402;2023-02-05T08:28:24;9.00;84.80
13310;DHT22;6723;48.256;16.402;2023-02-05T08:30:51;9.20;85.70
13310;DHT22;6723;48.256;16.402;2023-02-05T08:33:18;9.20;83.70
13310;DHT22;6723;48.256;16.402;2023-02-05T08:35:44;8.90;80.10
13310;DHT22;6723;48.256;16.402;2023-02-05T08:38:10;9.70;79.60
13310;DHT22;6723;48.256;16.402;2023-02-05T08:40:36;9.60;79.10
13310;DHT22;6723;48.256;16.402;2023-02-05T08:43:01;10.50;78.10
13310;DHT22;6723;48.256;16.402;2023-02-05T08:45:28;10.10;75.50
13310;DHT22;6723;48.256;16.402;2023-02-05T08:47:54;10.80;75.00
13310;DHT22;6723;48.256;16.402;2023-02-05T08:50:21;9.80;75.40
13310;DHT22;6723;48.256;16.402;2023-02-05T08:52:47;10.00;74.50
13310;DHT22;6723;48.256;16.402;2023-02-05T08:55:14;10.30;72.60
13310;DHT22;6723;48.256;16.402;2023-02-05T08:57:42;10.00;72.60
13310;DHT22;6723;48.256;16.402;2023-02-05T09:00:10;10.00;71.40
13310;DHT22;6723;48.256;16.402;2023-02-05T09:02:36;9.80;72.00
13310;DHT22;6723;48.256;16.402;2023-02-05T09:05:02;10.10;70.60
13310;DHT22;6723;48.256;16.402;2023-02-05T09:07:29;9.30;71.10
13310;DHT22;6723;48.256;16.402;2023-02-05T09:09:55;9.80;72.60
13310;DHT22;6723;48.256;16.402;2023-02-05T09:12:21;11.10;69.80
13310;DHT22;6723;48.256;16.402;2023-02-05T09:14:47;12.10;69.20
13310;DHT22;6723;48.256;16.402;2023-02-05T09:17:16;11.60;67.00
13310;DHT22;6723;48.256;16.402;2023-02-05T09:19:42;12.10;66.00
13310;DHT22;6723;48.256;16.402;2023-02-05T09:22:09;11.50;67.30
13310;DHT22;6723;48.256;16.402;2023-02-05T09:24:36;11.40;72.90
13310;DHT22;6723;48.256;16.402;2023-02-05T09:27:13;11.90;67.90
13310;DHT22;6723;48.256;16.402;2023-02-05T09:29:40;11.90;67.50
13310;DHT22;6723;48.256;16.402;2023-02-05T09:32:06;12.50;66.50
13310;DHT22;6723;48.256;16.402;2023-02-05T09:34:32;11.90;63.20
13310;DHT22;6723;48.256;16.402;2023-02-05T09:36:58;11.80;65.50
13310;DHT22;6723;48.256;16.402;2023-02-05T09:39:27;11.20;65.30
13310;DHT22;6723;48.256;16.402;2023-02-05T09:42:08;11.40;65.20
13310;DHT22;6723;48.256;16.402;2023-02-05T09:50:33;13.10;65.40
13310;DHT22;6723;48.256;16.402;2023-02-05T09:53:05;13.00;63.70
13310;DHT22;6723;48.256;16.402;2023-02-05T09:55:43;13.40;63.50
13310;DHT22;6723;48.256;16.402;2023-02-05T09:58:24;13.30;61.40
13310;DHT22;6723;48.256;16.402;2023-02-05T10:03:45;13.70;62.70
13310;DHT22;6723;48.256;16.402;2023-02-05T10:11:47;13.80;62.00
13310;DHT22;6723;48.256;16.402;2023-02-05T10:28:44;12.80;62.50
13310;DHT22;6723;48.256;16.402;2023-02-05T10:36:58;13.10;61.80
13310;DHT22;6723;48.256;16.402;2023-02-05T10:39:29;13.30;61.40
13310;DHT22;6723;48.256;16.402;2023-02-05T10:42:26;13.20;61.70
13310;DHT22;6723;48.256;16.402;2023-02-05T10:45:11;12.30;61.50
13310;DHT22;6723;48.256;16.402;2023-02-05T10:53:18;12.90;65.20
13310;DHT22;6723;48.256;16.402;2023-02-05T10:55:44;12.90;62.80
13310;DHT22;6723;48.256;16.402;2023-02-05T10:58:35;13.50;69.80
13310;DHT22;6723;48.256;16.402;2023-02-05T11:01:14;13.50;60.90
13310;DHT22;6723;48.256;16.402;2023-02-05T11:03:50;13.00;61.10
13310;DHT22;6723;48.256;16.402;2023-02-05T11:06:17;13.30;60.50
13310;DHT22;6723;48.256;16.402;2023-02-05T11:08:44;13.50;60.90
13310;DHT22;6723;48.256;16.402;2023-02-05T11:11:27;13.20;60.60
13310;DHT22;6723;48.256;16.402;2023-02-05T11:13:59;13.40;59.70
13310;DHT22;6723;48.256;16.402;2023-02-05T11:16:41;12.80;60.50
13310;DHT22;6723;48.256;16.402;2023-02-05T11:19:18;13.00;60.00
13310;DHT22;6723;48.256;16.402;2023-02-05T11:21:47;12.70;57.90
13310;DHT22;6723;48.256;16.402;2023-02-05T11:24:35;11.50;58.80
13310;DHT22;6723;48.256;16.402;2023-02-05T11:29:42;10.10;59.40
13310;DHT22;6723;48.256;16.402;2023-02-05T11:32:32;9.20;61.90
13310;DHT22;6723;48.256;16.402;2023-02-05T11:35:30;9.80;63.60
13310;DHT22;6723;48.256;16.402;2023-02-05T11:38:06;9.30;63.00
13310;DHT22;6723;48.256;16.402;2023-02-05T11:40:35;8.80;64.40
13310;DHT22;6723;48.256;16.402;2023-02-05T11:43:16;8.10;64.80
13310;DHT22;6723;48.256;16.402;2023-02-05T11:45:50;7.80;65.60
13310;DHT22;6723;48.256;16.402;2023-02-05T11:48:40;7.30;66.90
13310;DHT22;6723;48.256;16.402;2023-02-05T11:51:14;7.00;67.50
13310;DHT22;6723;48.256;16.402;2023-02-05T11:53:56;7.00;67.00
13310;DHT22;6723;48.256;16.402;2023-02-05T11:56:24;7.90;65.70
13310;DHT22;6723;48.256;16.402;2023-02-05T11:59:02;7.60;65.50
13310;DHT22;6723;48.256;16.402;2023-02-05T12:01:32;7.80;64.70
13310;DHT22;6723;48.256;16.402;2023-02-05T12:06:40;7.50;65.30
13310;DHT22;6723;48.256;16.402;2023-02-05T12:09:18;6.90;65.90
13310;DHT22;6723;48.256;16.402;2023-02-05T12:12:22;6.60;67.60
13310;DHT22;6723;48.256;16.402;2023-02-05T12:15:23;6.10;68.50
13310;DHT22;6723;48.256;16.402;2023-02-05T12:23:57;5.80;75.80
13310;DHT22;6723;48.256;16.402;2023-02-05T12:26:30;5.80;74.00
13310;DHT22;6723;48.256;16.402;2023-02-05T12:39:59;5.00;71.00
13310;DHT22;6723;48.256;16.402;2023-02-05T12:50:55;4.30;71.70
13310;DHT22;6723;48.256;16.402;2023-02-05T13:04:05;4.20;71.80
13310;DHT22;6723;48.256;16.402;2023-02-05T13:06:43;4.00;71.10
13310;DHT22;6723;48.256;16.402;2023-02-05T13:09:22;3.90;72.10
13310;DHT22;6723;48.256;16.402;2023-02-05T13:12:12;3.90;72.10
13310;DHT22;6723;48.256;16.402;2023-02-05T13:15:04;4.00;72.30
13310;DHT22;6723;48.256;16.402;2023-02-05T13:17:28;3.80;73.80
13310;DHT22;6723;48.256;16.402;2023-02-05T13:20:03;3.80;74.10
13310;DHT22;6723;48.256;16.402;2023-02-05T13:22:39;3.60;74.70
13310;DHT22;6723;48.256;16.402;2023-02-05T13:25:40;3.70;74.70
13310;DHT22;6723;48.256;16.402;2023-02-05T13:28:38;3.60;74.80
13310;DHT22;6723;48.256;16.402;2023-02-05T13:31:35;3.50;75.40
13310;DHT22;6723;48.256;16.402;2023-02-05T13:34:05;3.30;75.70
13310;DHT22;6723;48.256;16.402;2023-02-05T13:37:03;3.30;75.80
13310;DHT22;6723;48.256;16.402;2023-02-05T14:02:03;3.50;75.90
13310;DHT22;6723;48.256;16.402;2023-02-05T14:04:45;3.60;75.30
13310;DHT22;6723;48.256;16.402;2023-02-05T14:07:28;3.60;75.60
13310;DHT22;6723;48.256;16.402;2023-02-05T14:09:56;3.60;75.40
13310;DHT22;6723;48.256;16.402;2023-02-05T14:12:28;3.50;75.30
13310;DHT22;6723;48.256;16.402;2023-02-05T14:22:57;3.30;74.20
13310;DHT22;6723;48.256;16.402;2023-02-05T14:31:05;3.10;76.20
13310;DHT22;6723;48.256;16.402;2023-02-05T14:33:35;2.90;75.50
13310;DHT22;6723;48.256;16.402;2023-02-05T14:41:25;3.00;75.80
13310;DHT22;6723;48.256;16.402;2023-02-05T14:46:43;2.80;76.00
13310;DHT22;6723;48.256;16.402;2023-02-05T14:49:40;2.70;76.10
13310;DHT22;6723;48.256;16.402;2023-02-05T14:57:54;2.50;75.80
13310;DHT22;6723;48.256;16.402;2023-02-05T15:00:32;2.40;77.00
13310;DHT22;6723;48.256;16.402;2023-02-05T15:05:40;2.40;76.70
13310;DHT22;6723;48.256;16.402;2023-02-05T15:08:23;2.20;77.00
13310;DHT22;6723;48.256;16.402;2023-02-05T15:16:43;2.10;78.70
13310;DHT22;6723;48.256;16.402;2023-02-05T15:19:10;2.10;78.50
13310;DHT22;6723;48.256;16.402;2023-02-05T15:21:42;2.00;80.10
13310;DHT22;6723;48.256;16.402;2023-02-05T15:24:18;2.00;81.30
13310;DHT22;6723;48.256;16.402;2023-02-05T15:29:29;2.00;82.00
13310;DHT22;6723;48.256;16.402;2023-02-05T15:32:13;2.10;83.00
13310;DHT22;6723;48.256;16.402;2023-02-05T15:34:51;2.00;83.30
13310;DHT22;6723;48.256;16.402;2023-02-05T15:37:21;1.90;82.50
13310;DHT22;6723;48.256;16.402;2023-02-05T15:40:15;1.90;83.30
13310;DHT22;6723;48.256;16.402;2023-02-05T15:42:44;1.90;86.00
13310;DHT22;6723;48.256;16.402;2023-02-05T15:45:38;1.50;82.60
13310;DHT22;6723;48.256;16.402;2023-02-05T15:53:32;1.20;83.00
13310;DHT22;6723;48.256;16.402;2023-02-05T15:58:56;1.00;83.30
13310;DHT22;6723;48.256;16.402;2023-02-05T16:01:24;0.90;84.30
13310;DHT22;6723;48.256;16.402;2023-02-05T16:03:51;0.80;83.60
13310;DHT22;6723;48.256;16.402;2023-02-05T16:06:18;0.70;83.90
13310;DHT22;6723;48.256;16.402;2023-02-05T16:08:46;0.60;84.10
13310;DHT22;6723;48.256;16.402;2023-02-05T16:11:12;0.60;84.50
13310;DHT22;6723;48.256;16.402;2023-02-05T16:14:10;0.50;84.90
13310;DHT22;6723;48.256;16.402;2023-02-05T16:17:24;0.60;87.50
13310;DHT22;6723;48.256;16.402;2023-02-05T16:19:40;0.40;86.00
13310;DHT22;6723;48.256;16.402;2023-02-05T16:24:50;0.30;85.30
13310;DHT22;6723;48.256;16.402;2023-02-05T16:27:40;0.30;85.60
13310;DHT22;6723;48.256;16.402;2023-02-05T16:30:19;0.30;85.60
13310;DHT22;6723;48.256;16.402;2023-02-05T16:32:52;0.20;85.70
13310;DHT22;6723;48.256;16.402;2023-02-05T16:35:38;0.20;86.10
13310;DHT22;6723;48.256;16.402;2023-02-05T16:38:16;0.10;86.40
13310;DHT22;6723;48.256;16.402;2023-02-05T16:40:45;0.00;86.40
13310;DHT22;6723;48.256;16.402;2023-02-05T16:48:37;-0.10;86.70
13310;DHT22;6723;48.256;16.402;2023-02-05T16:51:04;-0.10;87.00
13310;DHT22;6723;48.256;16.402;2023-02-05T16:53:48;-0.10;87.50
13310;DHT22;6723;48.256;16.402;2023-02-05T16:56:23;-0.20;87.80
13310;DHT22;6723;48.256;16.402;2023-02-05T16:58:52;-0.20;88.20
13310;DHT22;6723;48.256;16.402;2023-02-05T17:01:39;-0.30;88.40
13310;DHT22;6723;48.256;16.402;2023-02-05T17:04:12;-0.30;88.40
13310;DHT22;6723;48.256;16.402;2023-02-05T17:06:42;-0.30;88.70
13310;DHT22;6723;48.256;16.402;2023-02-05T17:09:32;-0.30;89.20
13310;DHT22;6723;48.256;16.402;2023-02-05T17:14:55;-0.40;90.00
13310;DHT22;6723;48.256;16.402;2023-02-05T17:17:21;-0.40;90.10
13310;DHT22;6723;48.256;16.402;2023-02-05T17:20:45;-0.40;90.40
13310;DHT22;6723;48.256;16.402;2023-02-05T17:23:13;-0.40;90.40
13310;DHT22;6723;48.256;16.402;2023-02-05T17:25:52;-0.50;90.50
13310;DHT22;6723;48.256;16.402;2023-02-05T17:28:24;-0.50;90.50
13310;DHT22;6723;48.256;16.402;2023-02-05T17:30:55;-0.60;90.40
13310;DHT22;6723;48.256;16.402;2023-02-05T17:33:26;-0.60;90.60
13310;DHT22;6723;48.256;16.402;2023-02-05T17:35:52;-0.60;90.70
13310;DHT22;6723;48.256;16.402;2023-02-05T17:38:18;-0.50;90.90
13310;DHT22;6723;48.256;16.402;2023-02-05T17:40:50;-0.60;90.80
13310;DHT22;6723;48.256;16.402;2023-02-05T17:43:36;-0.60;90.80
13310;DHT22;6723;48.256;16.402;2023-02-05T17:46:04;-0.70;90.70
13310;DHT22;6723;48.256;16.402;2023-02-05T17:48:34;-0.60;90.90
13310;DHT22;6723;48.256;16.402;2023-02-05T17:51:00;-0.70;91.00
13310;DHT22;6723;48.256;16.402;2023-02-05T17:53:27;-0.70;90.90
13310;DHT22;6723;48.256;16.402;2023-02-05T17:55:53;-0.70;91.00
13310;DHT22;6723;48.256;16.402;2023-02-05T17:58:19;-0.70;91.00
13310;DHT22;6723;48.256;16.402;2023-02-05T18:00:45;-0.80;90.90
13310;DHT22;6723;48.256;16.402;2023-02-05T18:03:11;-0.80;90.90
13310;DHT22;6723;48.256;16.402;2023-02-05T18:05:36;-0.80;91.20
13310;DHT22;6723;48.256;16.402;2023-02-05T18:08:03;-0.80;91.20
13310;DHT22;6723;48.256;16.402;2023-02-05T18:10:30;-0.80;91.30
13310;DHT22;6723;48.256;16.402;2023-02-05T18:12:59;-0.90;91.40
13310;DHT22;6723;48.256;16.402;2023-02-05T18:15:25;-0.90;91.40
13310;DHT22;6723;48.256;16.402;2023-02-05T18:17:52;-0.90;91.40
13310;DHT22;6723;48.256;16.402;2023-02-05T18:20:18;-0.90;91.40
13310;DHT22;6723;48.256;16.402;2023-02-05T18:22:46;-0.90;91.50
13310;DHT22;6723;48.256;16.402;2023-02-05T18:25:12;-0.90;91.60
13310;DHT22;6723;48.256;16.402;2023-02-05T18:27:37;-1.00;91.60
13310;DHT22;6723;48.256;16.402;2023-02-05T18:30:04;-1.00;91.60
13310;DHT22;6723;48.256;16.402;2023-02-05T18:32:30;-1.00;91.70
13310;DHT22;6723;48.256;16.402;2023-02-05T18:34:56;-1.00;91.80
13310;DHT22;6723;48.256;16.402;2023-02-05T18:37:22;-0.90;92.60
13310;DHT22;6723;48.256;16.402;2023-02-05T18:39:48;-0.60;97.10
13310;DHT22;6723;48.256;16.402;2023-02-05T18:42:17;-0.80;95.10
13310;DHT22;6723;48.256;16.402;2023-02-05T18:44:42;-0.80;93.90
13310;DHT22;6723;48.256;16.402;2023-02-05T18:47:09;-0.80;93.60
13310;DHT22;6723;48.256;16.402;2023-02-05T18:49:36;-0.90;93.60
13310;DHT22;6723;48.256;16.402;2023-02-05T18:52:02;-0.90;93.50
13310;DHT22;6723;48.256;16.402;2023-02-05T18:54:29;-0.90;93.60
13310;DHT22;6723;48.256;16.402;2023-02-05T18:56:54;-1.00;93.50
13310;DHT22;6723;48.256;16.402;2023-02-05T18:59:22;-1.00;93.50
13310;DHT22;6723;48.256;16.402;2023-02-05T19:01:50;-1.00;93.50
13310;DHT22;6723;48.256;16.402;2023-02-05T19:04:17;-1.00;93.60
13310;DHT22;6723;48.256;16.402;2023-02-05T19:06:45;-1.10;93.40
13310;DHT22;6723;48.256;16.402;2023-02-05T19:09:20;-1.10;93.40
13310;DHT22;6723;48.256;16.402;2023-02-05T19:11:47;-1.20;93.40